sensor_id;sensor_type;location;lat;lon;timestamp;pressure;altitude;pressure_sealevel;temperature
31528;BMP280;10206;48.012;10.030;2024-02-23T00:00:11;92898.06;;;9.40
31528;BMP280;10206;48.012;10.030;2024-02-23T00:02:38;92911.97;;;9.32
31528;BMP280;10206;48.012;10.030;2024-02-23T00:05:05;92901.63;;;9.17
31528;BMP280;10206;48.012;10.030;2024-02-23T00:07:32;92902.03;;;9.12
31528;BMP280;10206;48.012;10.030;2024-02-23T00:09:58;92918.59;;;9.43
31528;BMP280;10206;48.012;10.030;2024-02-23T00:12:24;92920.50;;;9.02
31528;BMP280;10206;48.012;10.030;2024-02-23T00:14:50;92909.84;;;9.06
31528;BMP280;10206;48.012;10.030;2024-02-23T00:17:16;92906.69;;;8.98
31528;BMP280;10206;48.012;10.030;2024-02-23T00:19:45;92905.63;;;9.03
31528;BMP280;10206;48.012;10.030;2024-02-23T00:22:11;92910.88;;;8.87
31528;BMP280;10206;48.012;10.030;2024-02-23T00:24:37;92895.78;;;8.84
31528;BMP280;10206;48.012;10.030;2024-02-23T00:27:03;92896.38;;;8.82
31528;BMP280;10206;48.012;10.030;2024-02-23T00:29:29;92904.41;;;8.55
31528;BMP280;10206;48.012;10.030;2024-02-23T00:31:55;92903.97;;;8.72
31528;BMP280;10206;48.012;10.030;2024-02-23T00:34:21;92915.81;;;8.65
31528;BMP280;10206;48.012;10.030;2024-02-23T00:36:48;92894.44;;;8.71
31528;BMP280;10206;48.012;10.030;2024-02-23T00:39:14;92897.81;;;8.47
31528;BMP280;10206;48.012;10.030;2024-02-23T00:41:40;92910.94;;;8.27
31528;BMP280;10206;48.012;10.030;2024-02-23T00:44:06;92914.84;;;8.72
31528;BMP280;10206;48.012;10.030;2024-02-23T00:46:33;92921.97;;;8.66
31528;BMP280;10206;48.012;10.030;2024-02-23T00:48:59;92926.34;;;8.22
31528;BMP280;10206;48.012;10.030;2024-02-23T00:51:25;92922.38;;;8.37
31528;BMP280;10206;48.012;10.030;2024-02-23T00:53:53;92916.28;;;8.37
31528;BMP280;10206;48.012;10.030;2024-02-23T00:56:19;92920.63;;;8.30
31528;BMP280;10206;48.012;10.030;2024-02-23T00:58:45;92920.88;;;8.34
31528;BMP280;10206;48.012;10.030;2024-02-23T01:01:11;92934.06;;;8.40
31528;BMP280;10206;48.012;10.030;2024-02-23T01:03:37;92936.59;;;8.24
31528;BMP280;10206;48.012;10.030;2024-02-23T01:06:03;92925.44;;;8.43
31528;BMP280;10206;48.012;10.030;2024-02-23T01:08:29;92930.22;;;8.19
31528;BMP280;10206;48.012;10.030;2024-02-23T01:10:56;92931.88;;;8.24
31528;BMP280;10206;48.012;10.030;2024-02-23T01:13:22;92936.72;;;8.26
31528;BMP280;10206;48.012;10.030;2024-02-23T01:15:48;92934.03;;;8.26
31528;BMP280;10206;48.012;10.030;2024-02-23T01:18:14;92936.66;;;8.49
31528;BMP280;10206;48.012;10.030;2024-02-23T01:20:40;92929.81;;;8.48
31528;BMP280;10206;48.012;10.030;2024-02-23T01:23:06;92931.03;;;8.70
31528;BMP280;10206;48.012;10.030;2024-02-23T01:25:33;92928.38;;;8.47
31528;BMP280;10206;48.012;10.030;2024-02-23T01:28:00;92919.66;;;8.37
31528;BMP280;10206;48.012;10.030;2024-02-23T01:30:26;92923.25;;;8.28
31528;BMP280;10206;48.012;10.030;2024-02-23T01:32:53;92926.50;;;8.50
31528;BMP280;10206;48.012;10.030;2024-02-23T01:35:19;92934.06;;;8.51
31528;BMP280;10206;48.012;10.030;2024-02-23T01:37:45;92951.31;;;8.44
31528;BMP280;10206;48.012;10.030;2024-02-23T01:40:11;92946.91;;;8.62
31528;BMP280;10206;48.012;10.030;2024-02-23T01:42:37;92953.66;;;8.50
31528;BMP280;10206;48.012;10.030;2024-02-23T01:45:03;92960.75;;;8.43
31528;BMP280;10206;48.012;10.030;2024-02-23T01:47:30;92966.34;;;8.34
31528;BMP280;10206;48.012;10.030;2024-02-23T01:49:57;92960.19;;;8.45
31528;BMP280;10206;48.012;10.030;2024-02-23T01:52:24;92952.47;;;8.64
31528;BMP280;10206;48.012;10.030;2024-02-23T01:54:51;92962.41;;;8.48
31528;BMP280;10206;48.012;10.030;2024-02-23T01:57:18;92953.75;;;8.63
31528;BMP280;10206;48.012;10.030;2024-02-23T01:59:44;92954.03;;;8.44
31528;BMP280;10206;48.012;10.030;2024-02-23T02:02:10;92955.50;;;8.59
31528;BMP280;10206;48.012;10.030;2024-02-23T02:04:36;92964.38;;;8.71
31528;BMP280;10206;48.012;10.030;2024-02-23T02:07:02;92966.22;;;8.32
31528;BMP280;10206;48.012;10.030;2024-02-23T02:09:28;92966.25;;;8.68
31528;BMP280;10206;48.012;10.030;2024-02-23T02:11:55;92959.41;;;8.67
31528;BMP280;10206;48.012;10.030;2024-02-23T02:14:21;92975.78;;;8.33
31528;BMP280;10206;48.012;10.030;2024-02-23T02:16:47;92973.97;;;8.60
31528;BMP280;10206;48.012;10.030;2024-02-23T02:19:13;92980.81;;;8.50
31528;BMP280;10206;48.012;10.030;2024-02-23T02:21:40;92991.03;;;8.26
31528;BMP280;10206;48.012;10.030;2024-02-23T02:24:07;92991.22;;;8.53
31528;BMP280;10206;48.012;10.030;2024-02-23T02:26:36;92994.41;;;8.50
31528;BMP280;10206;48.012;10.030;2024-02-23T02:29:02;92999.97;;;8.52
31528;BMP280;10206;48.012;10.030;2024-02-23T02:31:29;92991.41;;;8.69
31528;BMP280;10206;48.012;10.030;2024-02-23T02:33:56;93001.81;;;8.72
31528;BMP280;10206;48.012;10.030;2024-02-23T02:36:22;93010.13;;;8.40
31528;BMP280;10206;48.012;10.030;2024-02-23T02:38:48;93007.13;;;8.59
31528;BMP280;10206;48.012;10.030;2024-02-23T02:41:16;93005.31;;;8.86
31528;BMP280;10206;48.012;10.030;2024-02-23T02:43:43;93006.22;;;9.03
31528;BMP280;10206;48.012;10.030;2024-02-23T02:46:09;93014.31;;;8.77
31528;BMP280;10206;48.012;10.030;2024-02-23T02:48:35;93020.31;;;8.87
31528;BMP280;10206;48.012;10.030;2024-02-23T02:51:01;93007.69;;;8.80
31528;BMP280;10206;48.012;10.030;2024-02-23T02:53:27;93004.72;;;8.05
31528;BMP280;10206;48.012;10.030;2024-02-23T02:55:53;93001.38;;;8.53
31528;BMP280;10206;48.012;10.030;2024-02-23T02:58:20;92999.19;;;8.03
31528;BMP280;10206;48.012;10.030;2024-02-23T03:00:46;92995.88;;;8.04
31528;BMP280;10206;48.012;10.030;2024-02-23T03:03:12;92988.66;;;8.09
31528;BMP280;10206;48.012;10.030;2024-02-23T03:05:38;93002.13;;;8.07
31528;BMP280;10206;48.012;10.030;2024-02-23T03:08:05;93011.78;;;8.21
31528;BMP280;10206;48.012;10.030;2024-02-23T03:10:32;93016.16;;;8.38
31528;BMP280;10206;48.012;10.030;2024-02-23T03:12:58;93008.13;;;8.40
31528;BMP280;10206;48.012;10.030;2024-02-23T03:15:24;92994.69;;;8.42
31528;BMP280;10206;48.012;10.030;2024-02-23T03:17:50;93002.22;;;8.55
31528;BMP280;10206;48.012;10.030;2024-02-23T03:20:16;92993.56;;;8.47
31528;BMP280;10206;48.012;10.030;2024-02-23T03:22:42;92988.13;;;8.59
31528;BMP280;10206;48.012;10.030;2024-02-23T03:25:08;92992.28;;;8.48
31528;BMP280;10206;48.012;10.030;2024-02-23T03:27:36;92997.59;;;8.58
31528;BMP280;10206;48.012;10.030;2024-02-23T03:30:06;92997.00;;;8.48
31528;BMP280;10206;48.012;10.030;2024-02-23T03:32:36;92995.34;;;8.54
31528;BMP280;10206;48.012;10.030;2024-02-23T03:35:03;92996.66;;;8.53
31528;BMP280;10206;48.012;10.030;2024-02-23T03:37:30;92997.38;;;8.07
31528;BMP280;10206;48.012;10.030;2024-02-23T03:39:56;93000.94;;;8.33
31528;BMP280;10206;48.012;10.030;2024-02-23T03:42:22;93004.56;;;8.38
31528;BMP280;10206;48.012;10.030;2024-02-23T03:44:48;93005.66;;;8.33
31528;BMP280;10206;48.012;10.030;2024-02-23T03:47:14;92999.75;;;8.36
31528;BMP280;10206;48.012;10.030;2024-02-23T03:49:40;92995.13;;;8.39
31528;BMP280;10206;48.012;10.030;2024-02-23T03:52:06;92994.56;;;8.29
31528;BMP280;10206;48.012;10.030;2024-02-23T03:54:32;92993.13;;;8.27
31528;BMP280;10206;48.012;10.030;2024-02-23T03:56:58;92984.66;;;7.87
31528;BMP280;10206;48.012;10.030;2024-02-23T03:59:24;92998.09;;;8.08
31528;BMP280;10206;48.012;10.030;2024-02-23T04:01:51;93008.72;;;8.27
31528;BMP280;10206;48.012;10.030;2024-02-23T04:04:17;93002.09;;;8.30
31528;BMP280;10206;48.012;10.030;2024-02-23T04:06:43;92996.47;;;8.14
31528;BMP280;10206;48.012;10.030;2024-02-23T04:09:09;92995.63;;;8.00
31528;BMP280;10206;48.012;10.030;2024-02-23T04:11:35;92998.56;;;7.81
31528;BMP280;10206;48.012;10.030;2024-02-23T04:14:01;93004.59;;;7.91
31528;BMP280;10206;48.012;10.030;2024-02-23T04:16:27;93005.63;;;7.86
31528;BMP280;10206;48.012;10.030;2024-02-23T04:18:54;93010.72;;;7.92
31528;BMP280;10206;48.012;10.030;2024-02-23T04:21:22;93001.88;;;7.91
31528;BMP280;10206;48.012;10.030;2024-02-23T04:23:48;92996.22;;;7.87
31528;BMP280;10206;48.012;10.030;2024-02-23T04:26:14;92995.66;;;7.44
31528;BMP280;10206;48.012;10.030;2024-02-23T04:28:41;92986.97;;;7.69
31528;BMP280;10206;48.012;10.030;2024-02-23T04:31:08;92988.41;;;7.82
31528;BMP280;10206;48.012;10.030;2024-02-23T04:33:36;92993.13;;;7.70
31528;BMP280;10206;48.012;10.030;2024-02-23T04:36:03;92992.66;;;7.62
31528;BMP280;10206;48.012;10.030;2024-02-23T04:38:30;92971.31;;;7.68
31528;BMP280;10206;48.012;10.030;2024-02-23T04:40:56;92970.09;;;7.47
31528;BMP280;10206;48.012;10.030;2024-02-23T04:43:23;92972.91;;;7.49
31528;BMP280;10206;48.012;10.030;2024-02-23T04:45:49;92971.03;;;7.64
31528;BMP280;10206;48.012;10.030;2024-02-23T04:48:15;92961.47;;;7.63
31528;BMP280;10206;48.012;10.030;2024-02-23T04:50:41;92973.03;;;7.63
31528;BMP280;10206;48.012;10.030;2024-02-23T04:53:08;92961.13;;;7.45
31528;BMP280;10206;48.012;10.030;2024-02-23T04:55:34;92971.25;;;7.44
31528;BMP280;10206;48.012;10.030;2024-02-23T04:58:00;92981.81;;;7.62
31528;BMP280;10206;48.012;10.030;2024-02-23T05:00:26;92983.16;;;7.51
31528;BMP280;10206;48.012;10.030;2024-02-23T05:02:59;92989.75;;;7.36
31528;BMP280;10206;48.012;10.030;2024-02-23T05:05:25;92992.34;;;7.34
31528;BMP280;10206;48.012;10.030;2024-02-23T05:07:51;92993.72;;;7.24
31528;BMP280;10206;48.012;10.030;2024-02-23T05:10:20;93000.25;;;7.09
31528;BMP280;10206;48.012;10.030;2024-02-23T05:12:46;92997.03;;;7.01
31528;BMP280;10206;48.012;10.030;2024-02-23T05:15:12;93002.09;;;6.74
31528;BMP280;10206;48.012;10.030;2024-02-23T05:17:38;92998.59;;;6.83
31528;BMP280;10206;48.012;10.030;2024-02-23T05:20:05;93009.91;;;6.79
31528;BMP280;10206;48.012;10.030;2024-02-23T05:22:34;93010.75;;;7.03
31528;BMP280;10206;48.012;10.030;2024-02-23T05:25:00;93019.13;;;6.86
31528;BMP280;10206;48.012;10.030;2024-02-23T05:27:26;93016.19;;;6.72
31528;BMP280;10206;48.012;10.030;2024-02-23T05:29:53;93022.97;;;7.25
31528;BMP280;10206;48.012;10.030;2024-02-23T05:32:19;93027.94;;;7.08
31528;BMP280;10206;48.012;10.030;2024-02-23T05:34:45;93023.16;;;7.18
31528;BMP280;10206;48.012;10.030;2024-02-23T05:37:11;93015.75;;;7.30
31528;BMP280;10206;48.012;10.030;2024-02-23T05:39:37;93010.13;;;7.05
31528;BMP280;10206;48.012;10.030;2024-02-23T05:42:04;93010.69;;;7.24
31528;BMP280;10206;48.012;10.030;2024-02-23T05:44:30;93001.00;;;7.21
31528;BMP280;10206;48.012;10.030;2024-02-23T05:46:56;93017.44;;;7.02
31528;BMP280;10206;48.012;10.030;2024-02-23T05:49:22;93024.34;;;6.93
31528;BMP280;10206;48.012;10.030;2024-02-23T05:51:48;93022.97;;;7.04
31528;BMP280;10206;48.012;10.030;2024-02-23T05:54:15;93021.06;;;7.28
31528;BMP280;10206;48.012;10.030;2024-02-23T05:56:41;93021.31;;;7.32
31528;BMP280;10206;48.012;10.030;2024-02-23T05:59:07;93029.13;;;7.37
31528;BMP280;10206;48.012;10.030;2024-02-23T06:01:33;93016.34;;;7.28
31528;BMP280;10206;48.012;10.030;2024-02-23T06:03:59;93024.06;;;7.11
31528;BMP280;10206;48.012;10.030;2024-02-23T06:06:25;93023.72;;;7.16
31528;BMP280;10206;48.012;10.030;2024-02-23T06:08:51;93019.00;;;7.17
31528;BMP280;10206;48.012;10.030;2024-02-23T06:11:17;93032.81;;;7.21
31528;BMP280;10206;48.012;10.030;2024-02-23T06:13:43;93031.97;;;7.39
31528;BMP280;10206;48.012;10.030;2024-02-23T06:16:12;93019.88;;;7.19
31528;BMP280;10206;48.012;10.030;2024-02-23T06:18:39;93026.44;;;7.16
31528;BMP280;10206;48.012;10.030;2024-02-23T06:21:17;93019.63;;;7.15
31528;BMP280;10206;48.012;10.030;2024-02-23T06:23:44;93021.53;;;7.24
31528;BMP280;10206;48.012;10.030;2024-02-23T06:26:11;93015.59;;;7.16
31528;BMP280;10206;48.012;10.030;2024-02-23T06:28:37;93015.09;;;7.08
31528;BMP280;10206;48.012;10.030;2024-02-23T06:31:05;93022.38;;;7.06
31528;BMP280;10206;48.012;10.030;2024-02-23T06:33:32;93025.16;;;6.75
31528;BMP280;10206;48.012;10.030;2024-02-23T06:35:58;93032.09;;;6.87
31528;BMP280;10206;48.012;10.030;2024-02-23T06:38:24;93039.56;;;6.99
31528;BMP280;10206;48.012;10.030;2024-02-23T06:40:50;93043.47;;;7.07
31528;BMP280;10206;48.012;10.030;2024-02-23T06:43:17;93035.09;;;7.24
31528;BMP280;10206;48.012;10.030;2024-02-23T06:45:43;93046.00;;;7.15
31528;BMP280;10206;48.012;10.030;2024-02-23T06:48:09;93052.53;;;7.00
31528;BMP280;10206;48.012;10.030;2024-02-23T06:50:35;93058.47;;;7.08
31528;BMP280;10206;48.012;10.030;2024-02-23T06:53:02;93054.59;;;7.11
31528;BMP280;10206;48.012;10.030;2024-02-23T06:55:28;93044.78;;;7.06
31528;BMP280;10206;48.012;10.030;2024-02-23T06:57:54;93052.53;;;6.79
31528;BMP280;10206;48.012;10.030;2024-02-23T07:00:21;93051.22;;;7.22
31528;BMP280;10206;48.012;10.030;2024-02-23T07:02:47;93048.66;;;7.24
31528;BMP280;10206;48.012;10.030;2024-02-23T07:05:13;93052.97;;;7.39
31528;BMP280;10206;48.012;10.030;2024-02-23T07:07:40;93033.97;;;7.39
31528;BMP280;10206;48.012;10.030;2024-02-23T07:10:07;93033.97;;;7.18
31528;BMP280;10206;48.012;10.030;2024-02-23T07:12:34;93043.97;;;7.36
31528;BMP280;10206;48.012;10.030;2024-02-23T07:15:00;93046.75;;;7.48
31528;BMP280;10206;48.012;10.030;2024-02-23T07:17:27;93040.66;;;7.05
31528;BMP280;10206;48.012;10.030;2024-02-23T07:19:54;93058.13;;;7.35
31528;BMP280;10206;48.012;10.030;2024-02-23T07:22:22;93064.78;;;7.55
31528;BMP280;10206;48.012;10.030;2024-02-23T07:24:48;93060.66;;;7.54
31528;BMP280;10206;48.012;10.030;2024-02-23T07:27:15;93057.13;;;7.63
31528;BMP280;10206;48.012;10.030;2024-02-23T07:29:41;93049.72;;;7.64
31528;BMP280;10206;48.012;10.030;2024-02-23T07:32:07;93050.38;;;7.52
31528;BMP280;10206;48.012;10.030;2024-02-23T07:34:33;93057.97;;;7.66
31528;BMP280;10206;48.012;10.030;2024-02-23T07:36:59;93037.25;;;7.82
31528;BMP280;10206;48.012;10.030;2024-02-23T07:39:26;93027.34;;;7.75
31528;BMP280;10206;48.012;10.030;2024-02-23T07:41:52;93027.84;;;7.83
31528;BMP280;10206;48.012;10.030;2024-02-23T07:44:18;93029.72;;;7.80
31528;BMP280;10206;48.012;10.030;2024-02-23T07:46:44;93043.00;;;7.65
31528;BMP280;10206;48.012;10.030;2024-02-23T07:49:10;93044.94;;;7.97
31528;BMP280;10206;48.012;10.030;2024-02-23T07:51:36;93057.19;;;7.75
31528;BMP280;10206;48.012;10.030;2024-02-23T07:54:03;93056.13;;;7.68
31528;BMP280;10206;48.012;10.030;2024-02-23T07:56:29;93048.44;;;7.32
31528;BMP280;10206;48.012;10.030;2024-02-23T07:58:56;93051.56;;;7.49
31528;BMP280;10206;48.012;10.030;2024-02-23T08:01:22;93051.63;;;7.61
31528;BMP280;10206;48.012;10.030;2024-02-23T08:03:48;93048.28;;;7.63
31528;BMP280;10206;48.012;10.030;2024-02-23T08:06:14;93041.75;;;7.44
31528;BMP280;10206;48.012;10.030;2024-02-23T08:08:41;93044.50;;;7.56
31528;BMP280;10206;48.012;10.030;2024-02-23T08:11:07;93049.34;;;7.57
31528;BMP280;10206;48.012;10.030;2024-02-23T08:13:33;93056.13;;;7.68
31528;BMP280;10206;48.012;10.030;2024-02-23T08:15:59;93065.22;;;7.73
31528;BMP280;10206;48.012;10.030;2024-02-23T08:18:25;93058.84;;;7.80
31528;BMP280;10206;48.012;10.030;2024-02-23T08:20:52;93056.84;;;7.80
31528;BMP280;10206;48.012;10.030;2024-02-23T08:23:18;93060.63;;;7.87
31528;BMP280;10206;48.012;10.030;2024-02-23T08:25:46;93061.31;;;7.76
31528;BMP280;10206;48.012;10.030;2024-02-23T08:28:12;93066.81;;;7.33
31528;BMP280;10206;48.012;10.030;2024-02-23T08:30:38;93069.09;;;7.81
31528;BMP280;10206;48.012;10.030;2024-02-23T08:33:04;93069.59;;;7.89
31528;BMP280;10206;48.012;10.030;2024-02-23T08:35:31;93056.91;;;8.03
31528;BMP280;10206;48.012;10.030;2024-02-23T08:37:58;93061.34;;;7.99
31528;BMP280;10206;48.012;10.030;2024-02-23T08:40:24;93057.38;;;8.23
31528;BMP280;10206;48.012;10.030;2024-02-23T08:42:50;93050.78;;;8.26
31528;BMP280;10206;48.012;10.030;2024-02-23T08:45:17;93058.09;;;8.35
31528;BMP280;10206;48.012;10.030;2024-02-23T08:47:44;93067.41;;;8.44
31528;BMP280;10206;48.012;10.030;2024-02-23T08:50:10;93068.25;;;8.23
31528;BMP280;10206;48.012;10.030;2024-02-23T08:52:37;93072.25;;;8.34
31528;BMP280;10206;48.012;10.030;2024-02-23T08:55:03;93072.59;;;8.51
31528;BMP280;10206;48.012;10.030;2024-02-23T08:57:29;93080.41;;;8.22
31528;BMP280;10206;48.012;10.030;2024-02-23T08:59:56;93081.34;;;8.15
31528;BMP280;10206;48.012;10.030;2024-02-23T09:02:24;93076.41;;;8.23
31528;BMP280;10206;48.012;10.030;2024-02-23T09:04:50;93081.22;;;8.24
31528;BMP280;10206;48.012;10.030;2024-02-23T09:07:16;93077.31;;;8.27
31528;BMP280;10206;48.012;10.030;2024-02-23T09:09:46;93075.91;;;8.27
31528;BMP280;10206;48.012;10.030;2024-02-23T09:12:12;93072.00;;;8.18
31528;BMP280;10206;48.012;10.030;2024-02-23T09:14:40;93078.50;;;8.13
31528;BMP280;10206;48.012;10.030;2024-02-23T09:17:07;93081.44;;;7.94
31528;BMP280;10206;48.012;10.030;2024-02-23T09:19:34;93090.03;;;8.02
31528;BMP280;10206;48.012;10.030;2024-02-23T09:22:00;93079.56;;;7.64
31528;BMP280;10206;48.012;10.030;2024-02-23T09:24:27;93090.66;;;8.12
31528;BMP280;10206;48.012;10.030;2024-02-23T09:26:54;93095.53;;;8.25
31528;BMP280;10206;48.012;10.030;2024-02-23T09:29:20;93104.56;;;8.06
31528;BMP280;10206;48.012;10.030;2024-02-23T09:31:47;93099.88;;;8.30
31528;BMP280;10206;48.012;10.030;2024-02-23T09:34:13;93103.63;;;8.13
31528;BMP280;10206;48.012;10.030;2024-02-23T09:36:40;93096.41;;;7.95
31528;BMP280;10206;48.012;10.030;2024-02-23T09:39:06;93097.81;;;7.96
31528;BMP280;10206;48.012;10.030;2024-02-23T09:41:32;93106.00;;;8.31
31528;BMP280;10206;48.012;10.030;2024-02-23T09:44:02;93108.38;;;8.24
31528;BMP280;10206;48.012;10.030;2024-02-23T09:46:28;93106.56;;;8.06
31528;BMP280;10206;48.012;10.030;2024-02-23T09:48:55;93103.34;;;7.98
31528;BMP280;10206;48.012;10.030;2024-02-23T09:51:23;93109.09;;;8.37
31528;BMP280;10206;48.012;10.030;2024-02-23T09:53:51;93102.00;;;8.43
31528;BMP280;10206;48.012;10.030;2024-02-23T09:56:18;93103.19;;;8.29
31528;BMP280;10206;48.012;10.030;2024-02-23T09:58:47;93099.63;;;8.49
31528;BMP280;10206;48.012;10.030;2024-02-23T10:01:22;93100.34;;;8.03
31528;BMP280;10206;48.012;10.030;2024-02-23T10:03:51;93107.16;;;8.04
31528;BMP280;10206;48.012;10.030;2024-02-23T10:06:18;93107.59;;;8.45
31528;BMP280;10206;48.012;10.030;2024-02-23T10:08:44;93115.00;;;8.56
31528;BMP280;10206;48.012;10.030;2024-02-23T10:11:11;93110.88;;;8.32
31528;BMP280;10206;48.012;10.030;2024-02-23T10:13:37;93110.91;;;8.55
31528;BMP280;10206;48.012;10.030;2024-02-23T10:16:03;93104.94;;;8.59
31528;BMP280;10206;48.012;10.030;2024-02-23T10:18:30;93099.63;;;8.49
31528;BMP280;10206;48.012;10.030;2024-02-23T10:20:56;93096.00;;;8.56
31528;BMP280;10206;48.012;10.030;2024-02-23T10:23:23;93104.84;;;8.34
31528;BMP280;10206;48.012;10.030;2024-02-23T10:25:49;93100.34;;;8.38
31528;BMP280;10206;48.012;10.030;2024-02-23T10:28:15;93115.69;;;8.68
31528;BMP280;10206;48.012;10.030;2024-02-23T10:30:42;93112.19;;;8.54
31528;BMP280;10206;48.012;10.030;2024-02-23T10:33:10;93109.91;;;8.62
31528;BMP280;10206;48.012;10.030;2024-02-23T10:35:38;93100.59;;;8.65
31528;BMP280;10206;48.012;10.030;2024-02-23T10:38:08;93094.44;;;8.30
31528;BMP280;10206;48.012;10.030;2024-02-23T10:40:39;93100.69;;;8.67
31528;BMP280;10206;48.012;10.030;2024-02-23T10:43:12;93100.56;;;8.88
31528;BMP280;10206;48.012;10.030;2024-02-23T10:45:42;93104.56;;;8.99
31528;BMP280;10206;48.012;10.030;2024-02-23T10:48:10;93097.31;;;9.15
31528;BMP280;10206;48.012;10.030;2024-02-23T10:50:37;93093.84;;;9.26
31528;BMP280;10206;48.012;10.030;2024-02-23T10:53:08;93101.66;;;9.32
31528;BMP280;10206;48.012;10.030;2024-02-23T10:55:37;93111.06;;;9.42
31528;BMP280;10206;48.012;10.030;2024-02-23T10:58:08;93108.31;;;9.54
31528;BMP280;10206;48.012;10.030;2024-02-23T11:00:37;93097.50;;;9.68
31528;BMP280;10206;48.012;10.030;2024-02-23T11:03:04;93097.66;;;9.58
31528;BMP280;10206;48.012;10.030;2024-02-23T11:05:32;93096.97;;;9.46
31528;BMP280;10206;48.012;10.030;2024-02-23T11:07:59;93086.34;;;9.02
31528;BMP280;10206;48.012;10.030;2024-02-23T11:10:25;93096.31;;;9.34
31528;BMP280;10206;48.012;10.030;2024-02-23T11:13:00;93101.00;;;9.08
31528;BMP280;10206;48.012;10.030;2024-02-23T11:15:28;93104.88;;;9.17
31528;BMP280;10206;48.012;10.030;2024-02-23T11:17:55;93104.25;;;9.30
31528;BMP280;10206;48.012;10.030;2024-02-23T11:20:21;93109.94;;;9.59
31528;BMP280;10206;48.012;10.030;2024-02-23T11:22:52;93094.84;;;9.70
31528;BMP280;10206;48.012;10.030;2024-02-23T11:25:19;93097.84;;;9.62
31528;BMP280;10206;48.012;10.030;2024-02-23T11:27:49;93088.50;;;9.65
31528;BMP280;10206;48.012;10.030;2024-02-23T11:30:17;93084.47;;;9.66
31528;BMP280;10206;48.012;10.030;2024-02-23T11:32:45;93095.84;;;9.63
31528;BMP280;10206;48.012;10.030;2024-02-23T11:35:17;93091.72;;;9.25
31528;BMP280;10206;48.012;10.030;2024-02-23T11:40:27;93091.09;;;9.63
31528;BMP280;10206;48.012;10.030;2024-02-23T11:42:55;93080.88;;;9.75
31528;BMP280;10206;48.012;10.030;2024-02-23T11:45:21;93087.16;;;9.78
31528;BMP280;10206;48.012;10.030;2024-02-23T11:47:48;93091.97;;;9.79
31528;BMP280;10206;48.012;10.030;2024-02-23T11:50:14;93076.94;;;9.78
31528;BMP280;10206;48.012;10.030;2024-02-23T11:52:46;93080.13;;;9.36
31528;BMP280;10206;48.012;10.030;2024-02-23T11:55:12;93077.78;;;9.55
31528;BMP280;10206;48.012;10.030;2024-02-23T11:57:40;93069.72;;;9.83
31528;BMP280;10206;48.012;10.030;2024-02-23T12:00:06;93062.78;;;9.93
31528;BMP280;10206;48.012;10.030;2024-02-23T12:02:35;93067.28;;;9.50
31528;BMP280;10206;48.012;10.030;2024-02-23T12:05:02;93075.31;;;9.73
31528;BMP280;10206;48.012;10.030;2024-02-23T12:07:32;93069.53;;;9.92
31528;BMP280;10206;48.012;10.030;2024-02-23T12:09:58;93073.03;;;9.81
31528;BMP280;10206;48.012;10.030;2024-02-23T12:12:28;93074.41;;;10.07
31528;BMP280;10206;48.012;10.030;2024-02-23T12:14:55;93071.50;;;10.03
31528;BMP280;10206;48.012;10.030;2024-02-23T12:17:21;93069.13;;;9.59
31528;BMP280;10206;48.012;10.030;2024-02-23T12:19:47;93076.72;;;9.99
31528;BMP280;10206;48.012;10.030;2024-02-23T12:22:13;93070.44;;;9.83
31528;BMP280;10206;48.012;10.030;2024-02-23T12:24:41;93069.38;;;10.02
31528;BMP280;10206;48.012;10.030;2024-02-23T12:27:07;93076.34;;;10.18
31528;BMP280;10206;48.012;10.030;2024-02-23T12:29:33;93080.81;;;10.25
31528;BMP280;10206;48.012;10.030;2024-02-23T12:32:04;93069.44;;;10.04
31528;BMP280;10206;48.012;10.030;2024-02-23T12:34:30;93066.41;;;9.84
31528;BMP280;10206;48.012;10.030;2024-02-23T12:36:56;93063.00;;;9.72
31528;BMP280;10206;48.012;10.030;2024-02-23T12:39:22;93057.09;;;9.76
31528;BMP280;10206;48.012;10.030;2024-02-23T12:41:48;93056.84;;;9.97
31528;BMP280;10206;48.012;10.030;2024-02-23T12:44:16;93063.00;;;9.72
31528;BMP280;10206;48.012;10.030;2024-02-23T12:46:43;93067.66;;;10.08
31528;BMP280;10206;48.012;10.030;2024-02-23T12:49:09;93061.25;;;10.04
31528;BMP280;10206;48.012;10.030;2024-02-23T12:51:35;93056.53;;;9.66
31528;BMP280;10206;48.012;10.030;2024-02-23T12:54:01;93056.16;;;9.71
31528;BMP280;10206;48.012;10.030;2024-02-23T12:56:27;93051.16;;;9.54
31528;BMP280;10206;48.012;10.030;2024-02-23T12:58:53;93067.25;;;10.00
31528;BMP280;10206;48.012;10.030;2024-02-23T13:01:20;93072.09;;;10.15
31528;BMP280;10206;48.012;10.030;2024-02-23T13:03:47;93069.25;;;10.13
31528;BMP280;10206;48.012;10.030;2024-02-23T13:06:14;93059.53;;;9.83
31528;BMP280;10206;48.012;10.030;2024-02-23T13:08:41;93063.06;;;9.86
31528;BMP280;10206;48.012;10.030;2024-02-23T13:11:08;93063.91;;;10.02
31528;BMP280;10206;48.012;10.030;2024-02-23T13:13:35;93047.22;;;9.82
31528;BMP280;10206;48.012;10.030;2024-02-23T13:16:01;93054.22;;;10.12
31528;BMP280;10206;48.012;10.030;2024-02-23T13:18:27;93050.03;;;10.37
31528;BMP280;10206;48.012;10.030;2024-02-23T13:20:53;93043.03;;;10.06
31528;BMP280;10206;48.012;10.030;2024-02-23T13:23:19;93044.75;;;10.13
31528;BMP280;10206;48.012;10.030;2024-02-23T13:25:46;93035.56;;;10.20
31528;BMP280;10206;48.012;10.030;2024-02-23T13:28:12;93027.38;;;10.07
31528;BMP280;10206;48.012;10.030;2024-02-23T13:30:38;93023.38;;;10.21
31528;BMP280;10206;48.012;10.030;2024-02-23T13:33:05;93018.16;;;10.25
31528;BMP280;10206;48.012;10.030;2024-02-23T13:35:36;93017.16;;;9.80
31528;BMP280;10206;48.012;10.030;2024-02-23T13:38:02;93015.00;;;10.17
31528;BMP280;10206;48.012;10.030;2024-02-23T13:40:31;93017.63;;;10.15
31528;BMP280;10206;48.012;10.030;2024-02-23T13:42:57;93013.78;;;10.20
31528;BMP280;10206;48.012;10.030;2024-02-23T13:45:23;93004.53;;;10.25
31528;BMP280;10206;48.012;10.030;2024-02-23T13:48:01;93003.13;;;9.72
31528;BMP280;10206;48.012;10.030;2024-02-23T13:50:28;93001.41;;;9.79
31528;BMP280;10206;48.012;10.030;2024-02-23T13:52:54;93009.34;;;10.13
31528;BMP280;10206;48.012;10.030;2024-02-23T13:55:21;93012.06;;;10.13
31528;BMP280;10206;48.012;10.030;2024-02-23T13:57:48;93008.75;;;10.15
31528;BMP280;10206;48.012;10.030;2024-02-23T14:00:18;93016.19;;;10.14
31528;BMP280;10206;48.012;10.030;2024-02-23T14:02:44;93035.97;;;10.15
31528;BMP280;10206;48.012;10.030;2024-02-23T14:05:11;93041.00;;;10.20